Flight Track Log - Related Links

Times and Time Zones

All times are in EDT time to prevent confusion due to time zone crossing. See the PDT4173 flight status page for this flight to view local times or setup timezone preferences in your user account.

Time Position Orientation Groundspeed Altitude Reporting Facility
EDT Latitude Longitude Course Direction KTS MPH feet Rate Location/Type
06:15PM 40.1337 -75.4744 325° Northwest  Level FlightAware Approximate
06:16PM 40.2180 -75.5612 279° West  Level FlightAware Approximate
06:17PM 40.2348 -75.7032 279° West  Level FlightAware Approximate
06:18PM 40.2500 -75.8454 270° West  Level FlightAware Approximate
06:19PM 40.2532 -75.9888 281° West  Level FlightAware Approximate
06:20PM 40.2685 -76.1308 273° West  Level FlightAware Approximate
06:21PM 40.2739 -76.2744 273° West  Level FlightAware Approximate
06:22PM 40.2791 -76.4181 273° West  Level FlightAware Approximate
06:23PM 40.2842 -76.5617 273° West  Level FlightAware Approximate
06:24PM 40.2890 -76.7054 273° West  Level FlightAware Approximate
06:25PM 40.2937 -76.8491 272° West  Level FlightAware Approximate
06:26PM 40.2982 -76.9928 272° West  Level FlightAware Approximate
06:27PM 40.2742 -77.0058 114° Southeast  Level FlightAware Approximate
06:28PM 40.2308 -76.8758 114° Southeast  Level FlightAware Approximate
06:29PM 40.1932 -76.7626 118° Southeast  Level Estimated
06:30PM 40.1932 -76.7626 118° Southeast  Level Estimated
06:31PM 40.1932 -76.7626 118° Southeast  Level Estimated
06:32PM 40.1932 -76.7626 118° Southeast  Level Estimated
06:33PM 40.1932 -76.7626 118° Southeast  Level Estimated
06:34PM 40.1932 -76.7626 118° Southeast  Level Estimated
06:35PM 40.1932 -76.7626 118° Southeast  Level Estimated
06:36PM 40.1932 -76.7626 118° Southeast  Level Estimated
06:37PM 40.1932 -76.7626 118° Southeast  Level Estimated
06:38PM 40.1932 -76.7626 118° Southeast  Level Estimated
06:39PM 40.1932 -76.7626 118° Southeast  Level Estimated
06:40PM 40.1932 -76.7626 118° Southeast  Level Estimated
06:41PM 40.1932 -76.7626 118° Southeast  Level Estimated
06:42PM 40.1932 -76.7626 118° Southeast  Level Estimated
06:43PM 40.1932 -76.7626 118° Southeast  Level Estimated
06:44PM 40.1932 -76.7626 118° Southeast  Level Estimated
06:45PM 40.1932 -76.7626 118° Southeast  Level Estimated

Login

Don't have an account? Register now (free) for customized features, flight alerts, and more!